Time;durP1;ratioP1;P1;durP2;ratioP2;P2;SDS_P1;SDS_P2;PMS_P1;PMS_P2;Temp;Humidity;BMP_temperature;BMP_pressure;BME280_temperature;BME280_humidity;BME280_pressure;Samples;Min_cycle;Max_cycle;Signal;HPM_P1;HPM_P2
2021/01/13 00:02:22;;;;;;;21.90;6.82;;;20.60;19.10;;;;;;5108438;28;20099;-56
2021/01/13 00:04:49;;;;;;;13.20;5.80;;;20.50;19.30;;;;;;5104294;28;20073;-59
2021/01/13 00:07:15;;;;;;;11.48;6.63;;;20.40;19.40;;;;;;5110612;28;20069;-57
2021/01/13 00:09:43;;;;;;;11.52;7.20;;;20.30;19.90;;;;;;5110625;28;21305;-58
2021/01/13 00:12:10;;;;;;;17.33;7.63;;;20.30;19.80;;;;;;5108531;28;20077;-57
2021/01/13 00:14:37;;;;;;;17.65;7.35;;;20.20;20.10;;;;;;5111085;28;20074;-57
2021/01/13 00:17:06;;;;;;;17.17;8.52;;;20.10;20.10;;;;;;5109960;28;20074;-56
2021/01/13 00:19:32;;;;;;;19.10;8.52;;;20.00;20.20;;;;;;5107163;28;20509;-55
2021/01/13 00:21:59;;;;;;;18.13;8.57;;;19.90;20.50;;;;;;5103483;28;20134;-57
2021/01/13 00:24:25;;;;;;;29.50;10.98;;;19.70;21.00;;;;;;5091919;28;20076;-56
2021/01/13 00:27:02;;;;;;;92.88;16.77;;;19.60;20.60;;;;;;5105144;27;20078;-54
2021/01/13 00:29:29;;;;;;;54.22;15.48;;;19.70;20.50;;;;;;5102264;28;20072;-57
2021/01/13 00:32:00;;;;;;;49.78;18.88;;;19.60;20.90;;;;;;5097768;28;20171;-57
2021/01/13 00:34:28;;;;;;;67.35;22.63;;;19.50;21.00;;;;;;5101336;28;20109;-56
2021/01/13 00:36:55;;;;;;;114.15;26.27;;;19.40;21.20;;;;;;5105999;28;20104;-58
2021/01/13 00:39:22;;;;;;;91.70;29.60;;;19.30;21.30;;;;;;5104863;28;20082;-56
2021/01/13 00:41:48;;;;;;;86.90;30.00;;;19.20;21.60;;;;;;5109228;28;20104;-55
2021/01/13 00:44:15;;;;;;;89.68;30.55;;;19.10;22.40;;;;;;5104066;28;20073;-53
2021/01/13 00:46:44;;;;;;;75.72;29.08;;;18.90;22.70;;;;;;5108307;28;20131;-58
2021/01/13 00:49:12;;;;;;;70.22;29.42;;;18.80;23.10;;;;;;5090359;28;20478;-55
2021/01/13 00:51:47;;;;;;;70.32;29.88;;;18.70;23.10;;;;;;5102888;28;20474;-55
2021/01/13 00:54:13;;;;;;;71.95;30.25;;;18.50;22.90;;;;;;5108157;28;20088;-55
2021/01/13 00:56:48;;;;;;;74.38;30.83;;;18.30;23.20;;;;;;5100683;28;20072;-57
2021/01/13 00:59:16;;;;;;;70.10;31.65;;;18.20;23.60;;;;;;5101239;28;20064;-56
2021/01/13 01:01:44;;;;;;;81.03;31.02;;;18.00;23.70;;;;;;5105642;28;20095;-58
2021/01/13 01:04:12;;;;;;;73.10;28.92;;;17.80;24.30;;;;;;5108665;28;20073;-57
2021/01/13 01:06:39;;;;;;;93.40;29.77;;;17.70;24.70;;;;;;5106939;28;20084;-54
2021/01/13 01:09:08;;;;;;;97.75;29.65;;;17.60;25.00;;;;;;5106434;28;20072;-56
2021/01/13 01:11:37;;;;;;;267.80;41.85;;;17.40;25.30;;;;;;5110436;28;20080;-56
2021/01/13 01:14:08;;;;;;;236.48;36.20;;;17.20;25.60;;;;;;5107363;28;20179;-61
2021/01/13 01:16:37;;;;;;;337.63;45.85;;;17.10;25.90;;;;;;5105329;28;20085;-59
2021/01/13 01:19:07;;;;;;;315.88;42.60;;;17.00;26.20;;;;;;5106140;28;20117;-58
2021/01/13 01:21:37;;;;;;;212.60;35.60;;;16.90;26.70;;;;;;5088790;28;20088;-56
2021/01/13 01:24:04;;;;;;;208.40;35.00;;;16.90;27.70;;;;;;5106467;28;20072;-56
2021/01/13 01:26:40;;;;;;;178.75;36.10;;;16.70;27.60;;;;;;5105950;28;20081;-58
2021/01/13 01:29:08;;;;;;;162.45;35.30;;;16.50;28.00;;;;;;5107141;28;20068;-51
2021/01/13 01:31:35;;;;;;;135.45;30.50;;;16.40;28.10;;;;;;5107627;28;20126;-56
2021/01/13 01:34:01;;;;;;;;;;;16.30;28.20;;;;;;5086027;28;20173;-56
2021/01/13 01:36:28;;;;;;;133.43;29.08;;;16.20;28.40;;;;;;5086281;28;20027;-54
2021/01/13 01:38:54;;;;;;;;;;;16.10;28.70;;;;;;5104943;28;20125;-57
2021/01/13 01:41:21;;;;;;;105.10;25.70;;;16.00;29.00;;;;;;5107898;27;19976;-56
2021/01/13 01:43:48;;;;;;;106.82;27.08;;;15.90;29.00;;;;;;5105968;28;20109;-56
2021/01/13 01:46:14;;;;;;;;;;;15.80;29.30;;;;;;5107588;28;20088;-54
2021/01/13 01:48:59;;;;;;;83.65;24.17;;;15.70;29.50;;;;;;5102832;28;20061;-56
2021/01/13 01:51:33;;;;;;;84.78;22.15;;;15.60;29.70;;;;;;5104077;28;20080;-57
2021/01/13 01:54:24;;;;;;;77.63;21.52;;;15.50;30.00;;;;;;5104070;28;20440;-58
2021/01/13 01:56:54;;;;;;;81.32;21.60;;;15.40;30.10;;;;;;5104773;28;20163;-57
2021/01/13 01:59:38;;;;;;;68.30;21.50;;;15.30;30.20;;;;;;5103287;28;20087;-53
2021/01/13 02:02:10;;;;;;;82.90;22.30;;;15.30;30.90;;;;;;5104917;28;20096;-55
2021/01/13 02:04:42;;;;;;;78.97;23.67;;;15.20;31.50;;;;;;5107452;28;20076;-57
2021/01/13 02:07:08;;;;;;;82.63;25.85;;;15.10;31.80;;;;;;5107899;28;20088;-59
2021/01/13 02:09:36;;;;;;;89.22;27.58;;;15.10;32.30;;;;;;5107261;28;20068;-59
2021/01/13 02:12:14;;;;;;;77.28;27.73;;;14.90;33.00;;;;;;5108739;28;20079;-59
2021/01/13 02:14:41;;;;;;;97.65;28.23;;;14.90;33.20;;;;;;5106067;28;20083;-56
2021/01/13 02:17:10;;;;;;;69.05;26.67;;;14.80;33.00;;;;;;5104642;28;20190;-54
2021/01/13 02:19:48;;;;;;;65.90;25.15;;;14.80;32.90;;;;;;5104620;28;20107;-57
2021/01/13 02:22:20;;;;;;;87.05;25.77;;;14.70;33.20;;;;;;5102556;28;20134;-57
2021/01/13 02:25:11;;;;;;;67.07;23.63;;;14.60;32.90;;;;;;5105716;28;20076;-55
2021/01/13 02:28:12;;;;;;;82.05;25.05;;;14.60;33.30;;;;;;5104337;28;20087;-57
2021/01/13 02:30:48;;;;;;;65.40;23.23;;;14.50;33.60;;;;;;5107311;28;20200;-58
2021/01/13 02:34:04;;;;;;;69.80;22.00;;;14.40;33.80;;;;;;5107745;28;20104;-59
2021/01/13 02:36:34;;;;;;;74.22;24.75;;;14.40;34.40;;;;;;5097757;28;20076;-60
2021/01/13 02:39:03;;;;;;;83.50;25.88;;;14.30;34.80;;;;;;5107715;28;20083;-57
2021/01/13 02:41:41;;;;;;;93.47;31.55;;;14.20;35.10;;;;;;5106167;28;20096;-58
2021/01/13 02:44:11;;;;;;;89.50;40.03;;;14.20;35.30;;;;;;5104404;28;20075;-57
2021/01/13 02:47:00;;;;;;;110.10;40.10;;;14.10;35.20;;;;;;5105603;28;20069;-56
2021/01/13 02:49:37;;;;;;;106.18;41.13;;;14.10;35.50;;;;;;5101636;28;20154;-57
2021/01/13 02:52:16;;;;;;;105.85;39.55;;;14.00;35.40;;;;;;5102401;28;20068;-55
2021/01/13 02:54:51;;;;;;;92.43;34.60;;;14.00;35.80;;;;;;5104231;28;20079;-60
2021/01/13 02:57:21;;;;;;;84.00;29.75;;;13.90;36.20;;;;;;5105770;28;20121;-56
2021/01/13 02:59:54;;;;;;;87.85;28.48;;;13.90;36.70;;;;;;5106256;28;20065;-55
2021/01/13 03:02:36;;;;;;;78.38;28.65;;;13.80;36.30;;;;;;5100857;28;20090;-57
2021/01/13 03:05:05;;;;;;;95.68;36.30;;;13.80;36.60;;;;;;5103825;28;20076;-55
2021/01/13 03:07:37;;;;;;;99.97;37.08;;;13.70;36.30;;;;;;5105103;28;20096;-54
2021/01/13 03:10:17;;;;;;;99.53;40.50;;;13.70;36.40;;;;;;5106345;28;20156;-58
2021/01/13 03:12:47;;;;;;;104.78;39.20;;;13.70;36.50;;;;;;5088062;28;20395;-58
2021/01/13 03:15:18;;;;;;;108.65;37.75;;;13.70;36.60;;;;;;5085961;28;20068;-58
2021/01/13 03:17:54;;;;;;;93.18;35.55;;;13.70;36.90;;;;;;5104950;28;20099;-59
2021/01/13 03:20:39;;;;;;;89.68;34.80;;;13.70;37.20;;;;;;5105855;28;20084;-56
2021/01/13 03:23:30;;;;;;;109.63;35.20;;;13.60;37.40;;;;;;5103927;28;20187;-58
2021/01/13 03:26:03;;;;;;;105.18;34.10;;;13.60;37.40;;;;;;5103035;28;20080;-56
2021/01/13 03:28:36;;;;;;;101.82;33.90;;;13.50;37.30;;;;;;5103775;28;20164;-56
2021/01/13 03:31:04;;;;;;;102.68;31.83;;;13.50;38.00;;;;;;5106070;28;20068;-56
2021/01/13 03:33:50;;;;;;;101.00;32.85;;;13.50;38.80;;;;;;5099692;28;20468;-56
2021/01/13 03:36:28;;;;;;;90.03;27.42;;;13.50;38.80;;;;;;5079561;28;20068;-57
2021/01/13 03:39:08;;;;;;;86.50;26.88;;;13.50;38.60;;;;;;5078324;28;20092;-61
2021/01/13 03:41:53;;;;;;;63.45;17.65;;;13.40;38.50;;;;;;5079974;28;20108;-54
2021/01/13 03:44:31;;;;;;;56.78;16.75;;;13.20;36.90;;;;;;5082671;28;20522;-56
2021/01/13 03:47:19;;;;;;;52.40;16.15;;;13.20;36.80;;;;;;5080146;28;20151;-56
2021/01/13 03:50:12;;;;;;;53.13;16.35;;;13.20;37.30;;;;;;5080303;28;20106;-55
2021/01/13 03:52:46;;;;;;;43.65;15.45;;;13.10;37.10;;;;;;5080981;28;20073;-55
2021/01/13 03:55:16;;;;;;;43.92;14.60;;;13.10;37.30;;;;;;5085100;28;20073;-59
2021/01/13 03:57:58;;;;;;;47.63;15.38;;;13.00;37.20;;;;;;5079710;28;20073;-53
2021/01/13 04:00:55;;;;;;;54.40;20.20;;;12.90;37.60;;;;;;5075936;28;20073;-56
2021/01/13 04:03:26;;;;;;;55.67;20.50;;;12.90;37.70;;;;;;5064917;28;20076;-58
2021/01/13 04:06:09;;;;;;;65.75;19.60;;;12.90;37.50;;;;;;5084783;28;20528;-58
2021/01/13 04:08:40;;;;;;;61.25;19.50;;;12.90;37.60;;;;;;5085197;28;20530;-57
2021/01/13 04:11:18;;;;;;;79.30;19.23;;;12.90;37.90;;;;;;5079097;28;20072;-56
2021/01/13 04:13:50;;;;;;;48.40;18.27;;;12.90;38.90;;;;;;5095554;28;20516;-57
2021/01/13 04:16:19;;;;;;;57.60;17.23;;;12.80;39.00;;;;;;5085893;28;20146;-57
2021/01/13 04:18:49;;;;;;;56.47;19.08;;;12.80;39.60;;;;;;5085570;28;20118;-59
2021/01/13 04:21:18;;;;;;;63.80;17.83;;;12.70;39.70;;;;;;5083356;28;20124;-56
2021/01/13 04:23:46;;;;;;;60.15;18.33;;;12.60;39.10;;;;;;5068344;28;20187;-56
2021/01/13 04:26:13;;;;;;;65.15;18.40;;;12.60;39.20;;;;;;5086599;28;20159;-57
2021/01/13 04:28:41;;;;;;;69.93;20.23;;;12.60;39.30;;;;;;5070652;28;20385;-54
2021/01/13 04:31:08;;;;;;;68.07;19.58;;;12.50;39.30;;;;;;5066770;28;20076;-52
2021/01/13 04:33:35;;;;;;;76.78;20.15;;;12.50;39.40;;;;;;5086377;28;20163;-56
2021/01/13 04:36:03;;;;;;;73.70;21.08;;;12.50;39.90;;;;;;5081997;28;20448;-55
2021/01/13 04:38:32;;;;;;;82.32;23.10;;;12.50;40.10;;;;;;5070471;28;20436;-56
2021/01/13 04:41:08;;;;;;;106.20;23.10;;;12.50;39.90;;;;;;5086729;28;24231;-59
2021/01/13 04:44:01;;;;;;;91.00;23.55;;;12.50;41.00;;;;;;5083646;28;20085;-56
2021/01/13 04:46:36;;;;;;;87.70;25.90;;;12.50;40.70;;;;;;5085734;28;20584;-57
2021/01/13 04:49:10;;;;;;;116.35;28.67;;;12.50;40.30;;;;;;5087551;28;20087;-56
2021/01/13 04:51:39;;;;;;;110.68;29.83;;;12.50;40.00;;;;;;5089195;28;20068;-57
2021/01/13 04:54:13;;;;;;;99.82;28.30;;;12.60;40.50;;;;;;5079534;28;20130;-58
2021/01/13 04:57:04;;;;;;;107.38;27.08;;;12.60;41.20;;;;;;5081724;28;20520;-57
2021/01/13 04:59:31;;;;;;;121.57;27.60;;;12.60;41.00;;;;;;5082720;28;20167;-57
2021/01/13 05:02:04;;;;;;;128.57;26.70;;;12.60;41.00;;;;;;5068267;28;20183;-57
2021/01/13 05:04:51;;;;;;;103.05;27.85;;;12.60;40.20;;;;;;5083405;28;20096;-57
2021/01/13 05:07:36;;;;;;;124.25;30.10;;;12.60;41.10;;;;;;5057139;28;20108;-53
2021/01/13 05:10:16;;;;;;;101.78;28.25;;;12.70;41.20;;;;;;5087096;28;20479;-58
2021/01/13 05:12:52;;;;;;;126.88;35.15;;;12.60;40.60;;;;;;5069163;28;20072;-55
2021/01/13 05:15:31;;;;;;;127.70;32.05;;;12.70;40.40;;;;;;5082934;28;20072;-60
2021/01/13 05:18:13;;;;;;;138.30;35.65;;;12.70;39.80;;;;;;5085982;28;20151;-53
2021/01/13 05:20:54;;;;;;;133.40;36.90;;;12.70;40.60;;;;;;5078811;28;20084;-54
2021/01/13 05:23:22;;;;;;;132.10;35.33;;;12.70;39.60;;;;;;5058149;28;20230;-58
2021/01/13 05:25:50;;;;;;;133.77;41.10;;;12.60;39.70;;;;;;5069546;28;20111;-55
2021/01/13 05:28:18;;;;;;;267.33;94.70;;;12.60;39.30;;;;;;5080591;28;20088;-57
2021/01/13 05:30:56;;;;;;;212.70;68.18;;;12.60;38.80;;;;;;5082905;28;20416;-57
2021/01/13 05:33:26;;;;;;;191.02;53.53;;;12.50;38.90;;;;;;5088250;28;20113;-57
2021/01/13 05:36:05;;;;;;;166.00;54.75;;;12.60;39.70;;;;;;5069942;28;20081;-53
2021/01/13 05:39:13;;;;;;;154.32;48.60;;;12.60;39.60;;;;;;5089671;28;20073;-55
2021/01/13 05:41:41;;;;;;;186.82;56.00;;;12.50;40.00;;;;;;5088699;28;20131;-57
2021/01/13 05:44:08;;;;;;;173.50;55.38;;;12.50;40.60;;;;;;5088331;28;20072;-56
2021/01/13 05:46:47;;;;;;;163.13;51.83;;;12.50;40.30;;;;;;5089892;28;20111;-53
2021/01/13 05:49:15;;;;;;;159.25;47.47;;;12.50;40.70;;;;;;5090700;28;20195;-56
2021/01/13 05:51:42;;;;;;;141.27;44.58;;;12.40;40.70;;;;;;5088957;28;21537;-54
2021/01/13 05:54:16;;;;;;;134.73;39.67;;;12.30;41.00;;;;;;5086983;28;20551;-57
2021/01/13 05:56:43;;;;;;;158.88;39.13;;;12.30;41.20;;;;;;5086353;28;20087;-58
2021/01/13 05:59:11;;;;;;;135.38;38.03;;;12.30;41.30;;;;;;5088420;28;20525;-54
2021/01/13 06:01:46;;;;;;;132.43;36.92;;;12.30;41.10;;;;;;5070160;28;20146;-54
2021/01/13 06:04:16;;;;;;;127.45;37.55;;;12.20;40.80;;;;;;5086063;28;20076;-54
2021/01/13 06:07:04;;;;;;;134.63;37.55;;;12.20;41.10;;;;;;5086973;28;20410;-54
2021/01/13 06:09:41;;;;;;;166.55;40.20;;;12.10;41.40;;;;;;5087957;28;20533;-54
2021/01/13 06:12:24;;;;;;;131.20;36.65;;;12.00;41.60;;;;;;5086162;28;20123;-54
2021/01/13 06:14:53;;;;;;;129.50;35.13;;;12.00;41.30;;;;;;5088793;28;20073;-58
2021/01/13 06:17:21;;;;;;;125.00;34.13;;;11.90;41.90;;;;;;5090062;28;20073;-57
2021/01/13 06:20:08;;;;;;;116.43;33.53;;;11.90;41.70;;;;;;5089215;28;20085;-60
2021/01/13 06:22:35;;;;;;;127.25;35.00;;;11.80;41.50;;;;;;5087247;28;20149;-58
2021/01/13 06:25:05;;;;;;;130.77;35.42;;;11.70;41.30;;;;;;5087958;28;20449;-58
2021/01/13 06:27:43;;;;;;;130.55;36.05;;;11.70;41.50;;;;;;5088243;28;20077;-56
2021/01/13 06:30:21;;;;;;;125.35;36.30;;;11.60;41.90;;;;;;5087232;28;20076;-58
2021/01/13 06:33:01;;;;;;;130.48;35.30;;;11.60;42.30;;;;;;5086616;28;20202;-60
2021/01/13 06:35:43;;;;;;;122.53;34.63;;;11.60;42.00;;;;;;5080726;28;20525;-58
2021/01/13 06:38:19;;;;;;;129.70;35.83;;;11.50;41.60;;;;;;5082078;28;20108;-57
2021/01/13 06:41:03;;;;;;;120.28;33.95;;;11.50;42.00;;;;;;5083118;28;20445;-56
2021/01/13 06:43:30;;;;;;;107.88;32.42;;;11.50;42.00;;;;;;5081496;28;20081;-56
2021/01/13 06:45:57;;;;;;;126.18;34.50;;;11.50;42.40;;;;;;5071188;28;20076;-57
2021/01/13 06:48:28;;;;;;;120.97;34.63;;;11.50;42.60;;;;;;5086811;28;20434;-58
2021/01/13 06:50:58;;;;;;;138.80;33.38;;;11.40;42.90;;;;;;5068683;28;20065;-56
2021/01/13 06:53:33;;;;;;;131.60;35.13;;;11.40;43.00;;;;;;5079498;28;20076;-54
2021/01/13 06:56:09;;;;;;;108.60;31.80;;;11.40;43.20;;;;;;5080975;28;20462;-55
2021/01/13 06:58:37;;;;;;;102.60;30.10;;;11.30;43.30;;;;;;5079003;28;21024;-56
2021/01/13 07:01:05;;;;;;;118.55;31.77;;;11.30;42.80;;;;;;5084454;28;20107;-56
2021/01/13 07:03:33;;;;;;;112.13;29.08;;;11.30;42.70;;;;;;5079290;28;20541;-52
2021/01/13 07:06:10;;;;;;;106.10;27.63;;;11.30;42.50;;;;;;5083280;28;20159;-56
2021/01/13 07:08:37;;;;;;;92.68;27.65;;;11.30;43.00;;;;;;5086226;28;20530;-52
2021/01/13 07:11:11;;;;;;;119.15;29.50;;;11.30;43.20;;;;;;5077362;28;20095;-52
2021/01/13 07:13:47;;;;;;;111.93;29.77;;;11.20;43.30;;;;;;5082533;28;20115;-51
2021/01/13 07:16:15;;;;;;;98.10;26.95;;;11.20;43.20;;;;;;5086284;28;20080;-54
2021/01/13 07:18:42;;;;;;;94.05;25.85;;;11.10;42.70;;;;;;5083888;28;20155;-56
2021/01/13 07:21:10;;;;;;;78.07;26.02;;;11.10;43.00;;;;;;5081384;28;20118;-58
2021/01/13 07:23:42;;;;;;;79.65;25.08;;;11.10;42.70;;;;;;5066726;28;20130;-56
2021/01/13 07:26:09;;;;;;;69.15;24.00;;;11.00;43.10;;;;;;5082534;28;20080;-57
2021/01/13 07:28:36;;;;;;;82.80;23.00;;;11.00;43.10;;;;;;5080059;28;20131;-56
2021/01/13 07:31:04;;;;;;;111.88;25.08;;;10.90;42.20;;;;;;5050735;28;20164;-56
2021/01/13 07:33:43;;;;;;;87.32;23.92;;;10.90;42.20;;;;;;5070302;28;20124;-53
2021/01/13 07:36:18;;;;;;;71.28;23.00;;;11.00;42.30;;;;;;5101592;28;20065;-51
2021/01/13 07:38:48;;;;;;;85.20;22.17;;;11.00;42.80;;;;;;5102561;28;20526;-54
2021/01/13 07:41:47;;;;;;;66.65;22.13;;;10.90;42.20;;;;;;5103133;28;20543;-56
2021/01/13 07:44:40;;;;;;;72.78;20.65;;;10.90;42.00;;;;;;5090083;28;20443;-55
2021/01/13 07:47:41;;;;;;;61.03;18.77;;;10.90;41.80;;;;;;5097506;28;20084;-57
2021/01/13 07:50:13;;;;;;;46.90;17.52;;;10.90;41.40;;;;;;5108511;28;20075;-56
2021/01/13 07:52:47;;;;;;;52.40;17.20;;;10.80;41.00;;;;;;5088715;28;20080;-54
2021/01/13 07:55:22;;;;;;;64.00;17.02;;;10.80;40.90;;;;;;5090220;28;20543;-55
2021/01/13 07:57:59;;;;;;;53.83;17.08;;;10.80;41.00;;;;;;5106154;28;20076;-54
2021/01/13 08:00:31;;;;;;;57.85;16.98;;;10.80;41.00;;;;;;5107952;28;20069;-59
2021/01/13 08:03:25;;;;;;;44.28;17.20;;;10.80;40.80;;;;;;5105071;28;20100;-57
2021/01/13 08:06:03;;;;;;;54.17;16.67;;;10.80;41.20;;;;;;5108341;28;20103;-58
2021/01/13 08:09:05;;;;;;;44.05;14.95;;;10.70;40.70;;;;;;5087356;28;20090;-58
2021/01/13 08:12:09;;;;;;;51.35;15.35;;;10.70;40.50;;;;;;5105017;28;20559;-57
2021/01/13 08:15:04;;;;;;;47.08;15.45;;;10.70;40.30;;;;;;5089280;28;20071;-56
2021/01/13 08:18:15;;;;;;;60.70;15.63;;;10.70;40.10;;;;;;5110474;28;20152;-53
2021/01/13 08:21:13;;;;;;;59.80;14.77;;;10.70;40.20;;;;;;5095521;28;20080;-56
2021/01/13 08:24:29;;;;;;;54.78;15.25;;;10.70;40.50;;;;;;5107040;27;20566;-55
2021/01/13 08:26:27;;;;;;;57.22;15.80;;;10.70;40.60;;;;;;5085726;28;20167;-54
2021/01/13 08:28:58;;;;;;;55.28;16.42;;;10.70;38.80;;;;;;5106341;28;20100;-55
2021/01/13 08:31:26;;;;;;;48.47;16.38;;;10.70;38.00;;;;;;5088026;28;20160;-56
2021/01/13 08:34:04;;;;;;;53.58;16.13;;;10.60;38.30;;;;;;5106707;28;20503;-55
2021/01/13 08:36:31;;;;;;;60.45;16.10;;;10.60;38.60;;;;;;5099220;28;20089;-55
2021/01/13 08:39:13;;;;;;;49.50;16.52;;;10.60;38.60;;;;;;5108847;28;20084;-56
2021/01/13 08:41:44;;;;;;;42.67;14.95;;;10.60;38.70;;;;;;5106622;28;20143;-57
2021/01/13 08:44:16;;;;;;;42.92;14.35;;;10.50;38.80;;;;;;5109105;28;20138;-53
2021/01/13 08:46:48;;;;;;;35.15;11.73;;;10.50;38.30;;;;;;5107342;28;20083;-55
2021/01/13 08:49:25;;;;;;;41.55;10.98;;;10.50;38.20;;;;;;5085564;28;20076;-53
2021/01/13 08:52:13;;;;;;;33.95;10.07;;;10.50;36.90;;;;;;5101899;28;20107;-55
2021/01/13 08:54:49;;;;;;;28.95;8.38;;;10.50;34.80;;;;;;5108247;28;20068;-54
2021/01/13 08:57:17;;;;;;;29.70;6.97;;;10.50;33.20;;;;;;5108988;28;20076;-53
2021/01/13 08:59:46;;;;;;;22.38;5.68;;;10.50;30.70;;;;;;5108856;28;20125;-51
2021/01/13 09:02:17;;;;;;;23.25;6.35;;;10.50;29.70;;;;;;5110533;28;20510;-54
2021/01/13 09:04:57;;;;;;;21.33;5.95;;;10.50;29.80;;;;;;5091402;28;20133;-56
2021/01/13 09:07:32;;;;;;;22.17;5.90;;;10.50;29.50;;;;;;5104236;28;20079;-55
2021/01/13 09:09:59;;;;;;;22.42;6.25;;;10.60;29.60;;;;;;5077894;28;20076;-55
2021/01/13 09:12:32;;;;;;;22.98;6.78;;;10.60;29.90;;;;;;5107711;28;20100;-54
2021/01/13 09:15:08;;;;;;;21.88;6.78;;;10.60;29.90;;;;;;5108922;28;20616;-55
2021/01/13 09:17:39;;;;;;;16.65;6.43;;;10.60;30.00;;;;;;5107410;28;20102;-52
2021/01/13 09:20:29;;;;;;;16.40;6.35;;;10.50;30.00;;;;;;5109119;27;20547;-52
2021/01/13 09:23:02;;;;;;;18.67;6.22;;;10.50;30.00;;;;;;5092851;28;20126;-52
2021/01/13 09:25:30;;;;;;;24.33;7.57;;;10.50;30.90;;;;;;5102354;28;20218;-53
2021/01/13 09:28:03;;;;;;;13.93;5.63;;;10.50;31.90;;;;;;5102583;28;20582;-51
2021/01/13 09:30:36;;;;;;;17.27;5.80;;;10.50;32.20;;;;;;5109869;28;20096;-53
2021/01/13 09:33:14;;;;;;;18.35;5.40;;;10.50;32.20;;;;;;5109457;28;20076;-52
2021/01/13 09:35:42;;;;;;;17.52;6.07;;;10.40;33.10;;;;;;5108568;28;20076;-53
2021/01/13 09:38:13;;;;;;;21.63;6.80;;;10.40;32.50;;;;;;5101660;28;20527;-54
2021/01/13 09:40:56;;;;;;;23.70;7.53;;;10.20;32.40;;;;;;5098237;28;20076;-55
2021/01/13 09:43:46;;;;;;;31.55;7.93;;;10.20;32.90;;;;;;5089393;28;20598;-53
2021/01/13 09:46:34;;;;;;;21.80;8.05;;;10.20;33.40;;;;;;5098944;28;20328;-56
2021/01/13 09:49:09;;;;;;;25.88;8.70;;;10.20;33.80;;;;;;5107119;28;20068;-54
2021/01/13 09:51:38;;;;;;;27.77;8.85;;;10.20;33.30;;;;;;5110425;28;20076;-54
2021/01/13 09:54:06;;;;;;;25.00;8.50;;;10.10;33.20;;;;;;5097201;28;20415;-54
2021/01/13 09:56:35;;;;;;;24.23;9.43;;;10.10;34.10;;;;;;5099672;28;20097;-58
2021/01/13 09:59:07;;;;;;;34.25;10.70;;;10.00;34.40;;;;;;5090529;28;20077;-51
2021/01/13 10:01:38;;;;;;;31.00;10.45;;;10.00;34.90;;;;;;5103563;28;20183;-53
2021/01/13 10:04:13;;;;;;;31.85;10.88;;;10.00;35.20;;;;;;5104955;28;20072;-56
2021/01/13 10:06:43;;;;;;;29.10;12.02;;;10.00;36.10;;;;;;5087429;28;20179;-53
2021/01/13 10:09:12;;;;;;;33.63;13.90;;;10.00;36.60;;;;;;5110138;28;20481;-53
2021/01/13 10:11:40;;;;;;;39.33;14.32;;;9.90;36.70;;;;;;5098084;28;20069;-54
2021/01/13 10:14:09;;;;;;;42.47;16.45;;;9.90;36.40;;;;;;5105662;28;20086;-56
2021/01/13 10:16:44;;;;;;;44.30;16.20;;;9.70;36.10;;;;;;5101300;28;20144;-56
2021/01/13 10:19:12;;;;;;;36.55;16.05;;;9.70;35.70;;;;;;5105134;28;20067;-56
2021/01/13 10:21:40;;;;;;;38.55;16.27;;;9.60;35.40;;;;;;5101538;28;20093;-53
2021/01/13 10:24:09;;;;;;;39.83;18.20;;;9.60;35.50;;;;;;5103158;28;20076;-54
2021/01/13 10:26:41;;;;;;;38.05;16.83;;;9.60;35.70;;;;;;5107461;28;20071;-56
2021/01/13 10:29:12;;;;;;;45.85;17.95;;;9.60;35.90;;;;;;5106231;28;20076;-53
2021/01/13 10:31:43;;;;;;;46.00;17.13;;;9.50;35.90;;;;;;5104789;28;20076;-55
2021/01/13 10:34:13;;;;;;;47.22;17.35;;;9.50;35.90;;;;;;5101540;28;20223;-56
2021/01/13 10:36:42;;;;;;;53.15;17.13;;;9.50;35.40;;;;;;5104885;28;20095;-56
2021/01/13 10:39:17;;;;;;;40.70;17.95;;;9.40;35.60;;;;;;5103662;28;20076;-56
2021/01/13 10:41:54;;;;;;;47.47;16.35;;;9.40;35.10;;;;;;5102231;28;20088;-54
2021/01/13 10:44:23;;;;;;;43.78;16.88;;;9.40;34.70;;;;;;5102844;28;20163;-56
2021/01/13 10:47:01;;;;;;;43.22;15.48;;;9.40;34.80;;;;;;5099769;28;20110;-53
2021/01/13 10:49:29;;;;;;;41.10;15.50;;;9.50;35.10;;;;;;5104404;28;20159;-56
2021/01/13 10:52:11;;;;;;;43.15;15.50;;;9.50;34.70;;;;;;5107135;28;20064;-55
2021/01/13 10:54:46;;;;;;;46.17;15.02;;;9.50;34.10;;;;;;5107166;28;20068;-55
2021/01/13 10:57:17;;;;;;;47.67;14.70;;;9.50;34.30;;;;;;5107016;28;20075;-56
2021/01/13 10:59:44;;;;;;;37.95;15.23;;;9.50;35.40;;;;;;5106518;28;20084;-53
2021/01/13 11:02:16;;;;;;;44.65;15.18;;;9.40;36.20;;;;;;5077834;28;20184;-56
2021/01/13 11:04:47;;;;;;;35.63;14.63;;;9.50;35.80;;;;;;5101504;28;20068;-57
2021/01/13 11:07:17;;;;;;;40.63;14.45;;;9.50;36.00;;;;;;5105707;28;20147;-54
2021/01/13 11:09:48;;;;;;;38.80;16.15;;;9.50;36.40;;;;;;5107240;28;20076;-57
2021/01/13 11:12:23;;;;;;;39.40;16.05;;;9.30;36.40;;;;;;5086537;28;21635;-55
2021/01/13 11:14:51;;;;;;;42.20;15.73;;;9.40;36.00;;;;;;5084289;28;20079;-55
2021/01/13 11:17:25;;;;;;;40.30;15.73;;;9.40;36.50;;;;;;5107477;28;20080;-55
2021/01/13 11:19:55;;;;;;;34.78;14.98;;;9.30;36.10;;;;;;5094829;28;20065;-54
2021/01/13 11:22:45;;;;;;;42.25;15.25;;;9.30;36.40;;;;;;5105670;28;20088;-52
2021/01/13 11:25:39;;;;;;;43.45;14.93;;;9.20;37.50;;;;;;5110179;28;20219;-55
2021/01/13 11:28:08;;;;;;;39.53;14.32;;;9.30;38.20;;;;;;5095251;28;20064;-53
2021/01/13 11:30:38;;;;;;;39.35;14.57;;;9.20;38.50;;;;;;5110431;28;20104;-53
2021/01/13 11:33:07;;;;;;;44.25;15.25;;;9.20;39.20;;;;;;5112068;28;21466;-53
2021/01/13 11:35:48;;;;;;;42.88;15.45;;;9.20;38.40;;;;;;5111156;28;20104;-53
2021/01/13 11:38:32;;;;;;;37.85;14.07;;;9.20;38.10;;;;;;5111314;28;20683;-55
2021/01/13 11:41:20;;;;;;;30.85;14.30;;;9.20;38.40;;;;;;5107685;27;20537;-55
2021/01/13 11:43:49;;;;;;;;;;;9.10;38.20;;;;;;5098880;28;20086;-54
2021/01/13 11:46:33;;;;;;;39.10;14.07;;;9.10;38.20;;;;;;5110806;28;19961;-51
2021/01/13 11:49:10;;;;;;;33.97;13.57;;;9.00;38.10;;;;;;5110200;28;20176;-52
2021/01/13 11:51:43;;;;;;;35.30;13.38;;;8.90;38.00;;;;;;5107975;28;20155;-55
2021/01/13 11:54:10;;;;;;;32.13;12.98;;;8.90;38.70;;;;;;5104002;28;20210;-54
2021/01/13 11:56:36;;;;;;;34.58;12.80;;;9.00;38.80;;;;;;5107394;28;20073;-54
2021/01/13 11:59:03;;;;;;;32.65;11.95;;;8.90;38.70;;;;;;5110235;28;20084;-53
2021/01/13 12:01:35;;;;;;;30.70;11.85;;;8.90;38.70;;;;;;5111670;28;20168;-50
2021/01/13 12:04:04;;;;;;;29.63;10.25;;;8.90;39.20;;;;;;5101727;28;20076;-53
2021/01/13 12:06:31;;;;;;;26.23;10.23;;;8.90;39.80;;;;;;5108260;28;20072;-52
2021/01/13 12:08:58;;;;;;;20.67;10.35;;;8.90;40.10;;;;;;5110361;28;20072;-51
2021/01/13 12:11:24;;;;;;;25.63;10.45;;;8.90;40.30;;;;;;5111194;28;20068;-54
2021/01/13 12:13:52;;;;;;;;;;;8.90;39.90;;;;;;5103328;28;20178;-53
2021/01/13 12:16:22;;;;;;;29.13;12.30;;;8.90;40.20;;;;;;5099801;28;19957;-51
2021/01/13 12:18:53;;;;;;;28.83;12.63;;;8.80;40.70;;;;;;5105452;28;20103;-56
2021/01/13 12:21:24;;;;;;;31.08;12.63;;;8.70;40.90;;;;;;5105569;28;20081;-52
2021/01/13 12:23:51;;;;;;;27.75;12.93;;;8.70;41.40;;;;;;5108182;28;20155;-55
2021/01/13 12:26:27;;;;;;;41.85;16.23;;;8.70;41.30;;;;;;5101306;28;20071;-56
2021/01/13 12:29:02;;;;;;;53.78;17.92;;;8.80;41.20;;;;;;5110639;28;20492;-52
2021/01/13 12:31:39;;;;;;;60.22;20.48;;;8.80;41.30;;;;;;5102859;28;20147;-54
2021/01/13 12:34:24;;;;;;;74.65;29.48;;;8.70;41.40;;;;;;5096032;28;20116;-56
2021/01/13 12:36:57;;;;;;;96.47;33.13;;;8.70;41.90;;;;;;5085700;28;20077;-53
2021/01/13 12:39:35;;;;;;;94.68;36.17;;;8.70;41.70;;;;;;5084968;28;20073;-56
2021/01/13 12:42:03;;;;;;;109.72;40.53;;;8.50;41.90;;;;;;5087041;28;20092;-52
2021/01/13 12:44:30;;;;;;;103.30;39.78;;;8.50;41.60;;;;;;5083691;28;20076;-56
2021/01/13 12:47:08;;;;;;;145.45;51.53;;;8.40;41.50;;;;;;5069215;28;20068;-57
2021/01/13 12:49:34;;;;;;;121.55;42.38;;;8.30;41.00;;;;;;5082984;28;20081;-52
2021/01/13 12:52:00;;;;;;;;;;;8.40;41.50;;;;;;5083205;28;20072;-52
2021/01/13 12:54:28;;;;;;;61.13;19.80;;;8.50;41.40;;;;;;5088557;28;20002;-51
2021/01/13 12:56:55;;;;;;;42.88;15.73;;;8.40;41.40;;;;;;5089080;28;20080;-52
2021/01/13 12:59:21;;;;;;;40.53;13.52;;;8.40;41.80;;;;;;5085137;28;20130;-54
2021/01/13 13:01:48;;;;;;;;;;;8.40;41.70;;;;;;5087303;28;20099;-53
2021/01/13 13:04:16;;;;;;;42.20;15.13;;;8.30;42.50;;;;;;5087340;28;19971;-53
2021/01/13 13:06:42;;;;;;;52.50;18.13;;;8.30;42.20;;;;;;5070041;28;20198;-54